createdAt,value
2023-03-05T00:01:43.860Z,7.67
2023-03-05T00:04:16.554Z,7.20
2023-03-05T00:06:45.187Z,6.27
2023-03-05T00:09:13.718Z,6.20
2023-03-05T00:11:42.399Z,6.07
2023-03-05T00:14:12.957Z,5.97
2023-03-05T00:16:41.795Z,5.97
2023-03-05T00:19:11.560Z,6.23
2023-03-05T00:21:42.983Z,6.37
2023-03-05T00:24:14.650Z,5.87
2023-03-05T00:26:43.210Z,5.77
2023-03-05T00:29:13.285Z,5.20
2023-03-05T00:31:41.956Z,5.67
2023-03-05T00:34:14.150Z,6.53
2023-03-05T00:36:44.954Z,5.40
2023-03-05T00:39:14.572Z,5.43
2023-03-05T00:41:43.475Z,4.97
2023-03-05T00:44:12.161Z,5.73
2023-03-05T00:46:44.177Z,5.47
2023-03-05T00:49:12.769Z,5.27
2023-03-05T00:51:41.314Z,6.10
2023-03-05T00:54:11.346Z,5.47
2023-03-05T00:56:39.969Z,5.60
2023-03-05T00:59:09.169Z,5.73
2023-03-05T01:01:37.809Z,7.27
2023-03-05T01:04:06.818Z,6.03
2023-03-05T01:06:35.503Z,5.83
2023-03-05T01:09:04.147Z,12.23
2023-03-05T01:11:34.124Z,8.03
2023-03-05T01:14:02.681Z,9.30
2023-03-05T01:16:31.569Z,8.67
2023-03-05T01:19:00.287Z,10.10
2023-03-05T01:21:28.810Z,10.10
2023-03-05T01:23:57.864Z,9.60
2023-03-05T01:26:26.492Z,10.07
2023-03-05T01:28:56.768Z,10.37
2023-03-05T01:31:25.492Z,9.47
2023-03-05T01:33:54.410Z,9.17
2023-03-05T01:36:25.426Z,10.03
2023-03-05T01:38:54.502Z,9.97
2023-03-05T01:41:23.248Z,10.03
2023-03-05T01:43:53.100Z,11.10
2023-03-05T01:46:32.198Z,10.07
2023-03-05T01:49:09.588Z,9.63
2023-03-05T01:51:43.264Z,8.17
2023-03-05T01:54:14.537Z,7.93
2023-03-05T01:56:45.058Z,8.10
2023-03-05T01:59:15.707Z,7.90
2023-03-05T02:01:52.064Z,8.03
2023-03-05T02:04:22.957Z,8.30
2023-03-05T02:06:51.469Z,8.20
2023-03-05T02:09:23.763Z,8.77
2023-03-05T02:11:53.264Z,8.10
2023-03-05T02:14:29.749Z,9.20
2023-03-05T02:17:04.372Z,8.10
2023-03-05T02:19:48.182Z,8.50
2023-03-05T02:22:19.278Z,8.47
2023-03-05T02:24:47.914Z,10.30
2023-03-05T02:27:17.779Z,10.77
2023-03-05T02:29:47.766Z,10.30
2023-03-05T02:32:16.504Z,11.23
2023-03-05T02:34:46.656Z,11.30
2023-03-05T02:37:15.215Z,13.70
2023-03-05T02:39:45.262Z,14.37
2023-03-05T02:42:14.339Z,15.43
2023-03-05T02:44:43.114Z,15.00
2023-03-05T02:47:11.650Z,16.63
2023-03-05T02:49:40.329Z,25.27
2023-03-05T02:52:09.231Z,14.33
2023-03-05T02:54:37.752Z,18.77
2023-03-05T02:57:07.852Z,21.00
2023-03-05T02:59:36.480Z,25.83
2023-03-05T03:02:05.187Z,24.87
2023-03-05T03:04:33.731Z,22.57
2023-03-05T03:07:02.649Z,21.53
2023-03-05T03:09:31.215Z,23.07
2023-03-05T03:11:59.759Z,23.10
2023-03-05T03:14:32.011Z,21.37
2023-03-05T03:17:00.778Z,24.30
2023-03-05T03:19:29.834Z,21.07
2023-03-05T03:21:58.532Z,22.77
2023-03-05T03:24:27.158Z,23.60
2023-03-05T03:26:55.758Z,21.77
2023-03-05T03:29:24.298Z,22.10
2023-03-05T03:31:54.559Z,21.10
2023-03-05T03:34:23.115Z,19.37
2023-03-05T03:36:53.083Z,19.43
2023-03-05T03:39:22.124Z,15.30
2023-03-05T03:41:53.212Z,16.77
2023-03-05T03:44:22.780Z,14.77
2023-03-05T03:46:54.427Z,15.13
2023-03-05T03:49:25.015Z,15.40
2023-03-05T03:51:55.740Z,13.27
2023-03-05T03:54:25.117Z,12.63
2023-03-05T03:56:53.898Z,11.10
2023-03-05T03:59:22.776Z,10.70
2023-03-05T04:01:51.668Z,8.80
2023-03-05T04:04:21.857Z,8.97
2023-03-05T04:06:50.428Z,8.53
2023-03-05T04:09:19.041Z,8.33
2023-03-05T04:11:47.775Z,8.83
2023-03-05T04:14:16.308Z,8.33
2023-03-05T04:16:44.863Z,8.30
2023-03-05T04:19:13.693Z,8.40
2023-03-05T04:21:43.730Z,9.53
2023-03-05T04:24:12.290Z,9.27
2023-03-05T04:26:40.810Z,9.53
2023-03-05T04:29:09.531Z,9.60
2023-03-05T04:31:38.520Z,9.77
2023-03-05T04:34:07.132Z,9.73
2023-03-05T04:36:35.766Z,10.57
2023-03-05T04:39:06.325Z,10.17
2023-03-05T04:41:35.078Z,11.30
2023-03-05T04:44:03.683Z,10.80
2023-03-05T04:46:32.299Z,10.87
2023-03-05T04:49:01.209Z,10.77
2023-03-05T04:51:29.999Z,11.23
2023-03-05T04:53:58.587Z,10.93
2023-03-05T04:56:28.582Z,11.33
2023-03-05T04:58:57.208Z,10.83
2023-03-05T05:01:25.747Z,11.43
2023-03-05T05:03:54.375Z,16.08
2023-03-05T05:06:23.030Z,35.43
2023-03-05T05:08:51.610Z,11.97
2023-03-05T05:11:20.191Z,9.80
2023-03-05T05:13:50.380Z,10.97
2023-03-05T05:16:19.234Z,11.13
2023-03-05T05:18:47.905Z,10.13
2023-03-05T05:21:18.802Z,10.30
2023-03-05T05:23:47.487Z,10.80
2023-03-05T05:26:16.714Z,10.70
2023-03-05T05:28:45.716Z,11.73
2023-03-05T05:31:17.569Z,10.87
2023-03-05T05:33:48.758Z,10.63
2023-03-05T05:36:19.647Z,10.20
2023-03-05T05:38:48.164Z,9.27
2023-03-05T05:41:18.793Z,8.70
2023-03-05T05:43:47.664Z,9.13
2023-03-05T05:46:19.759Z,9.50
2023-03-05T05:48:49.704Z,8.77
2023-03-05T05:51:19.959Z,9.23
2023-03-05T05:53:48.729Z,9.27
2023-03-05T05:56:18.146Z,8.17
2023-03-05T05:58:48.463Z,9.33
2023-03-05T06:01:21.410Z,9.13
2023-03-05T06:03:50.340Z,7.70
2023-03-05T06:06:21.038Z,7.17
2023-03-05T06:08:50.196Z,8.97
2023-03-05T06:11:19.566Z,9.37
2023-03-05T06:13:48.884Z,9.80
2023-03-05T06:16:21.487Z,12.40
2023-03-05T06:18:50.081Z,24.52
2023-03-05T06:21:20.617Z,24.73
2023-03-05T06:23:50.319Z,12.60
2023-03-05T06:26:20.850Z,11.90
2023-03-05T06:28:49.747Z,7.40
2023-03-05T06:31:22.091Z,7.27
2023-03-05T06:33:51.284Z,8.70
2023-03-05T06:36:21.547Z,7.27
2023-03-05T06:38:53.047Z,8.00
2023-03-05T06:41:23.573Z,7.40
2023-03-05T06:43:52.356Z,7.13
2023-03-05T06:46:24.085Z,7.53
2023-03-05T06:48:54.195Z,7.63
2023-03-05T06:51:24.913Z,9.33
2023-03-05T06:53:54.603Z,10.30
2023-03-05T06:56:24.520Z,8.33
2023-03-05T06:58:53.888Z,8.27
2023-03-05T07:01:24.620Z,9.60
2023-03-05T07:03:54.240Z,12.95
2023-03-05T07:06:23.616Z,18.47
2023-03-05T07:08:52.511Z,16.73
2023-03-05T07:11:22.281Z,20.10
2023-03-05T07:13:51.816Z,19.83
2023-03-05T07:16:22.180Z,15.37
2023-03-05T07:18:52.836Z,16.53
2023-03-05T07:21:24.768Z,14.63
2023-03-05T07:23:55.592Z,18.30
2023-03-05T07:26:25.050Z,18.57
2023-03-05T07:28:54.247Z,19.20
2023-03-05T07:31:27.564Z,15.47
2023-03-05T07:33:58.428Z,34.03
2023-03-05T07:36:27.036Z,20.17
2023-03-05T07:38:55.553Z,28.00
2023-03-05T07:41:24.333Z,17.83
2023-03-05T07:43:55.652Z,23.53
2023-03-05T07:46:28.131Z,22.97
2023-03-05T07:48:58.357Z,23.10
2023-03-05T07:51:28.862Z,21.67
2023-03-05T07:54:01.079Z,23.33
2023-03-05T07:56:35.456Z,23.30
2023-03-05T07:59:06.712Z,23.00
2023-03-05T08:01:36.066Z,19.87
2023-03-05T08:04:07.001Z,25.00
2023-03-05T08:06:35.871Z,18.93
2023-03-05T08:09:04.495Z,18.30
2023-03-05T08:11:33.129Z,17.27
2023-03-05T08:14:01.721Z,18.47
2023-03-05T08:16:30.942Z,18.43
2023-03-05T08:19:00.297Z,18.90
2023-03-05T08:21:33.888Z,26.27
2023-03-05T08:24:04.647Z,19.37
2023-03-05T08:26:35.340Z,24.57
2023-03-05T08:29:03.951Z,25.40
2023-03-05T08:31:33.535Z,21.97
2023-03-05T08:34:03.229Z,26.93
2023-03-05T08:36:33.849Z,31.40
2023-03-05T08:39:02.428Z,33.43
2023-03-05T08:41:31.605Z,25.57
2023-03-05T08:44:00.486Z,27.23
2023-03-05T08:46:29.144Z,36.33
2023-03-05T08:48:57.779Z,40.63
2023-03-05T08:51:27.680Z,36.20
2023-03-05T08:53:59.926Z,34.10
2023-03-05T08:56:31.334Z,29.73
2023-03-05T08:58:59.973Z,28.77
2023-03-05T09:01:28.575Z,30.80
2023-03-05T09:03:57.070Z,25.13
2023-03-05T09:06:26.248Z,27.33
2023-03-05T09:08:56.408Z,26.37
2023-03-05T09:11:25.146Z,38.93
2023-03-05T09:13:53.799Z,21.57
2023-03-05T09:16:22.395Z,22.53
2023-03-05T09:18:50.980Z,22.40
2023-03-05T09:21:20.082Z,26.13
2023-03-05T09:23:48.765Z,26.47
2023-03-05T09:26:20.770Z,17.05
2023-03-05T09:28:49.884Z,84.27
2023-03-05T09:31:19.259Z,61.80
2023-03-05T09:33:49.646Z,39.73
2023-03-05T09:36:21.287Z,33.57
2023-03-05T09:38:49.996Z,30.47
2023-03-05T09:41:30.764Z,28.17
2023-03-05T09:44:09.659Z,12.27
2023-03-05T09:46:49.791Z,67.68
2023-03-05T09:49:22.617Z,82.97
2023-03-05T09:51:58.978Z,48.77
2023-03-05T09:54:34.022Z,17.35
2023-03-05T09:57:07.250Z,17.95
2023-03-05T09:59:46.826Z,35.60
2023-03-05T10:02:20.860Z,97.03
2023-03-05T10:04:54.006Z,104.70
2023-03-05T10:07:27.352Z,79.20
2023-03-05T10:09:59.528Z,20.45
2023-03-05T10:12:43.104Z,43.20
2023-03-05T10:15:14.618Z,102.90
2023-03-05T10:18:07.125Z,87.43
2023-03-05T10:20:56.678Z,79.93
2023-03-05T10:23:47.020Z,79.40
2023-03-05T10:26:37.610Z,49.57
2023-03-05T10:29:31.829Z,41.07
2023-03-05T10:32:13.391Z,27.87
2023-03-05T10:35:12.072Z,24.97
2023-03-05T10:38:25.408Z,24.13
2023-03-05T10:40:57.458Z,18.60
2023-03-05T10:43:32.504Z,19.67
2023-03-05T10:46:05.113Z,24.80
2023-03-05T10:48:41.745Z,12.52
2023-03-05T10:51:16.968Z,15.82
2023-03-05T10:53:55.252Z,26.17
2023-03-05T10:56:26.026Z,83.20
2023-03-05T10:58:54.561Z,80.57
2023-03-05T11:01:26.358Z,82.17
2023-03-05T11:03:57.653Z,27.02
2023-03-05T11:06:36.733Z,82.60
2023-03-05T11:09:24.408Z,82.90
2023-03-05T11:12:14.515Z,56.37
2023-03-05T11:14:44.788Z,45.23
2023-03-05T11:17:33.795Z,30.38
2023-03-05T11:20:35.472Z,101.50
2023-03-05T11:23:06.196Z,73.27
2023-03-05T11:25:36.528Z,73.10
2023-03-05T11:28:05.719Z,63.07
2023-03-05T11:30:37.891Z,57.90
2023-03-05T11:33:14.811Z,64.43
2023-03-05T11:35:44.881Z,44.47
2023-03-05T11:38:18.732Z,42.93
2023-03-05T11:40:48.071Z,41.23
2023-03-05T11:43:19.309Z,63.47
2023-03-05T11:45:50.902Z,42.13
2023-03-05T11:48:26.626Z,71.55
2023-03-05T11:50:59.132Z,28.45
2023-03-05T11:53:29.680Z,36.10
2023-03-05T11:56:03.530Z,91.03
2023-03-05T11:58:36.907Z,73.97
2023-03-05T12:01:13.090Z,27.23
2023-03-05T12:03:43.743Z,29.80
2023-03-05T12:06:19.161Z,93.90
2023-03-05T12:08:51.245Z,82.80
2023-03-05T12:11:23.135Z,31.58
2023-03-05T12:13:53.993Z,32.67
2023-03-05T12:16:32.546Z,24.15
2023-03-05T12:19:24.055Z,33.17
2023-03-05T12:21:54.540Z,67.60
2023-03-05T12:24:38.292Z,59.33
2023-03-05T12:27:35.299Z,51.17
2023-03-05T12:30:05.356Z,44.27
2023-03-05T12:33:02.410Z,64.20
2023-03-05T12:35:41.121Z,51.17
2023-03-05T12:38:29.572Z,56.50
2023-03-05T12:41:34.791Z,24.42
2023-03-05T12:44:23.955Z,51.97
2023-03-05T12:47:23.837Z,22.63
2023-03-05T12:49:52.767Z,55.20
2023-03-05T12:52:29.363Z,38.23
2023-03-05T12:55:20.478Z,44.33
2023-03-05T12:57:53.886Z,63.45
2023-03-05T13:00:33.928Z,16.67
2023-03-05T13:03:05.891Z,34.50
2023-03-05T13:05:37.680Z,41.93
2023-03-05T13:08:21.669Z,44.97
2023-03-05T13:10:55.474Z,33.40
2023-03-05T13:13:25.762Z,36.20
2023-03-05T13:15:54.932Z,31.80
2023-03-05T13:18:25.064Z,39.43
2023-03-05T13:21:13.036Z,41.40
2023-03-05T13:24:07.481Z,32.23
2023-03-05T13:26:39.822Z,28.67
2023-03-05T13:29:12.268Z,39.03
2023-03-05T13:31:45.130Z,33.70
2023-03-05T13:34:19.309Z,39.33
2023-03-05T13:36:51.413Z,33.63
2023-03-05T13:39:24.227Z,22.98
2023-03-05T13:42:07.381Z,18.57
2023-03-05T13:44:36.528Z,48.00
2023-03-05T13:47:19.077Z,47.73
2023-03-05T13:49:48.522Z,56.10
2023-03-05T13:52:26.320Z,34.10
2023-03-05T13:54:56.488Z,32.23
2023-03-05T13:57:37.755Z,37.70
2023-03-05T14:00:09.570Z,25.80
2023-03-05T14:02:38.252Z,24.83
2023-03-05T14:05:16.985Z,59.70
2023-03-05T14:07:50.406Z,53.17
2023-03-05T14:10:38.686Z,50.60
2023-03-05T14:13:19.664Z,32.33
2023-03-05T14:16:05.343Z,29.37
2023-03-05T14:18:33.974Z,24.93
2023-03-05T14:21:05.930Z,34.30
2023-03-05T14:23:42.344Z,31.43
2023-03-05T14:26:31.583Z,34.07
2023-03-05T14:29:02.806Z,28.03
2023-03-05T14:31:34.054Z,30.00
2023-03-05T14:34:05.459Z,29.63
2023-03-05T14:36:35.365Z,26.60
2023-03-05T14:39:04.341Z,27.53
2023-03-05T14:41:40.401Z,27.97
2023-03-05T14:44:17.260Z,23.07
2023-03-05T14:46:50.311Z,21.87
2023-03-05T14:49:19.235Z,24.23
2023-03-05T14:51:57.633Z,25.70
2023-03-05T14:54:29.664Z,23.90
2023-03-05T15:00:28.651Z,24.53
2023-03-05T15:03:00.761Z,31.17
2023-03-05T15:05:52.800Z,30.60
2023-03-05T15:08:48.138Z,28.30
2023-03-05T15:11:18.230Z,24.57
2023-03-05T15:14:02.521Z,31.23
2023-03-05T15:19:21.678Z,30.60
2023-03-05T15:21:53.296Z,33.83
2023-03-05T15:27:57.433Z,61.53
2023-03-05T15:30:32.558Z,36.00
2023-03-05T15:33:04.954Z,26.53
2023-03-05T15:35:34.085Z,32.73
2023-03-05T15:38:02.832Z,27.70
2023-03-05T15:40:31.951Z,32.80
2023-03-05T15:43:01.939Z,66.70
2023-03-05T15:45:35.129Z,56.37
2023-03-05T15:48:05.839Z,42.10
2023-03-05T15:50:34.535Z,49.07
2023-03-05T15:53:04.999Z,42.67
2023-03-05T15:55:33.790Z,50.57
2023-03-05T16:00:38.258Z,47.60
2023-03-05T16:03:09.795Z,37.57
2023-03-05T16:05:39.352Z,23.50
2023-03-05T16:08:09.085Z,24.97
2023-03-05T16:10:39.947Z,30.10
2023-03-05T16:13:12.865Z,24.57
2023-03-05T16:15:47.688Z,27.03
2023-03-05T16:18:19.025Z,21.13
2023-03-05T16:20:47.883Z,19.87
2023-03-05T16:23:19.546Z,20.33
2023-03-05T16:25:48.297Z,22.63
2023-03-05T16:28:17.165Z,24.63
2023-03-05T16:30:56.503Z,29.30
2023-03-05T16:33:26.262Z,31.57
2023-03-05T16:36:22.485Z,37.60
2023-03-05T16:38:55.617Z,53.03
2023-03-05T16:41:34.974Z,49.47
2023-03-05T16:44:19.244Z,67.53
2023-03-05T16:46:53.662Z,57.88
2023-03-05T16:49:34.480Z,68.80
2023-03-05T16:52:17.699Z,65.65
2023-03-05T16:54:47.445Z,73.13
2023-03-05T16:57:19.065Z,63.53
2023-03-05T16:59:47.721Z,66.37
2023-03-05T17:02:18.029Z,65.57
2023-03-05T17:05:00.624Z,61.23
2023-03-05T17:07:39.311Z,44.40
2023-03-05T17:10:40.033Z,41.30
2023-03-05T17:13:08.908Z,36.93
2023-03-05T17:15:37.662Z,31.70
2023-03-05T17:18:08.426Z,39.50
2023-03-05T17:20:37.291Z,46.03
2023-03-05T17:23:15.168Z,52.83
2023-03-05T17:25:44.157Z,63.27
2023-03-05T17:28:13.061Z,61.65
2023-03-05T17:30:42.137Z,77.63
2023-03-05T17:33:12.537Z,72.43
2023-03-05T17:35:42.122Z,44.57
2023-03-05T17:38:11.740Z,44.37
2023-03-05T17:40:40.779Z,38.23
2023-03-05T17:43:09.626Z,43.77
2023-03-05T17:45:38.721Z,39.95
2023-03-05T17:48:16.073Z,60.37
2023-03-05T17:50:46.729Z,52.00
2023-03-05T17:53:15.520Z,39.47
2023-03-05T17:55:44.496Z,34.30
2023-03-05T17:58:13.337Z,32.80
2023-03-05T18:00:47.667Z,29.60
2023-03-05T18:03:16.566Z,25.90
2023-03-05T18:05:46.793Z,29.70
2023-03-05T18:08:15.555Z,29.87
2023-03-05T18:10:47.668Z,41.10
2023-03-05T18:13:16.507Z,32.73
2023-03-05T18:15:47.994Z,34.80
2023-03-05T18:18:17.195Z,30.37
2023-03-05T18:20:49.591Z,31.88
2023-03-05T18:23:18.556Z,34.50
2023-03-05T18:25:50.585Z,36.07
2023-03-05T18:28:19.568Z,40.43
2023-03-05T18:30:51.283Z,29.05
2023-03-05T18:33:21.683Z,38.33
2023-03-05T18:35:55.609Z,35.90
2023-03-05T18:38:26.782Z,32.97
2023-03-05T18:41:24.327Z,28.83
2023-03-05T18:44:04.961Z,29.33
2023-03-05T18:46:33.821Z,27.83
2023-03-05T18:49:05.607Z,32.17
2023-03-05T18:51:36.005Z,39.50
2023-03-05T18:54:07.275Z,32.30
2023-03-05T18:56:36.668Z,29.00
2023-03-05T18:59:06.982Z,29.03
2023-03-05T19:01:38.908Z,31.77
2023-03-05T19:04:08.924Z,36.07
2023-03-05T19:06:39.618Z,33.33
2023-03-05T19:09:17.407Z,30.63
2023-03-05T19:11:46.245Z,33.37
2023-03-05T19:14:15.010Z,33.40
2023-03-05T19:16:45.617Z,30.03
2023-03-05T19:19:21.378Z,28.63
2023-03-05T19:21:56.052Z,28.63
2023-03-05T19:24:26.769Z,27.57
2023-03-05T19:26:56.213Z,26.20
2023-03-05T19:29:25.666Z,31.10
2023-03-05T19:31:54.883Z,30.70
2023-03-05T19:34:25.555Z,31.07
2023-03-05T19:36:56.538Z,28.43
2023-03-05T19:39:25.602Z,26.63
2023-03-05T19:41:54.988Z,24.93
2023-03-05T19:44:24.008Z,23.07
2023-03-05T19:46:52.734Z,24.00
2023-03-05T19:49:22.563Z,24.80
2023-03-05T19:51:51.784Z,24.33
2023-03-05T19:54:23.063Z,25.63
2023-03-05T19:56:54.926Z,25.73
2023-03-05T19:59:57.958Z,24.33
2023-03-05T20:05:26.111Z,25.70
2023-03-05T20:07:56.602Z,26.53
2023-03-05T20:10:27.308Z,25.43
2023-03-05T20:12:58.197Z,26.70
2023-03-05T20:15:29.729Z,27.07
2023-03-05T20:18:00.554Z,28.70
2023-03-05T20:20:31.485Z,26.83
2023-03-05T20:23:00.650Z,27.40
2023-03-05T20:25:32.467Z,37.77
2023-03-05T20:28:01.835Z,37.90
2023-03-05T20:30:31.049Z,28.70
2023-03-05T20:32:59.921Z,29.77
2023-03-05T20:35:29.206Z,30.17
2023-03-05T20:38:21.035Z,29.13
2023-03-05T20:40:53.569Z,29.83
2023-03-05T20:43:30.826Z,28.77
2023-03-05T20:46:04.049Z,31.27
2023-03-05T20:48:34.915Z,32.57
2023-03-05T20:51:16.492Z,33.03
2023-03-05T20:53:45.770Z,30.40
2023-03-05T20:56:16.554Z,32.50
2023-03-05T20:58:46.537Z,35.40
2023-03-05T21:01:15.793Z,39.03
2023-03-05T21:03:44.989Z,36.90
2023-03-05T21:06:14.120Z,38.30
2023-03-05T21:08:44.157Z,37.33
2023-03-05T21:11:18.212Z,34.20
2023-03-05T21:13:47.608Z,33.63
2023-03-05T21:16:20.067Z,34.30
2023-03-05T21:18:49.385Z,31.23
2023-03-05T21:21:18.588Z,32.07
2023-03-05T21:24:09.259Z,33.37
2023-03-05T21:26:42.097Z,32.80
2023-03-05T21:29:16.433Z,34.70
2023-03-05T21:31:45.297Z,34.63
2023-03-05T21:34:14.854Z,38.03
2023-03-05T21:36:43.890Z,35.43
2023-03-05T21:39:15.224Z,34.07
2023-03-05T21:41:46.817Z,34.30
2023-03-05T21:44:17.844Z,33.73
2023-03-05T21:46:46.512Z,31.97
2023-03-05T21:49:15.237Z,34.77
2023-03-05T21:51:57.343Z,36.43
2023-03-05T21:54:28.041Z,30.43
2023-03-05T21:56:59.212Z,31.50
2023-03-05T21:59:28.088Z,32.07
2023-03-05T22:01:57.151Z,30.40
2023-03-05T22:04:26.133Z,31.33
2023-03-05T22:06:55.203Z,33.87
2023-03-05T22:09:24.007Z,34.07
2023-03-05T22:11:52.605Z,33.70
2023-03-05T22:14:22.787Z,40.53
2023-03-05T22:16:58.252Z,40.60
2023-03-05T22:19:27.091Z,43.55
2023-03-05T22:21:55.855Z,41.57
2023-03-05T22:24:25.753Z,35.23
2023-03-05T22:26:54.359Z,38.07
2023-03-05T22:29:24.599Z,34.90
2023-03-05T22:31:56.187Z,38.97
2023-03-05T22:34:24.900Z,37.90
2023-03-05T22:36:53.680Z,38.00
2023-03-05T22:39:22.346Z,41.63
2023-03-05T22:41:51.227Z,42.03
2023-03-05T22:44:20.809Z,39.33
2023-03-05T22:46:50.920Z,41.80
2023-03-05T22:49:21.800Z,37.73
2023-03-05T22:51:54.461Z,36.60
2023-03-05T22:54:30.777Z,40.03
2023-03-05T22:56:59.529Z,41.33
2023-03-05T22:59:29.632Z,40.30
2023-03-05T23:01:59.576Z,39.20
2023-03-05T23:04:40.381Z,32.67
2023-03-05T23:07:08.925Z,33.40
2023-03-05T23:09:37.553Z,37.33
2023-03-05T23:12:06.857Z,33.63
2023-03-05T23:14:37.550Z,36.33
2023-03-05T23:17:07.547Z,34.60
2023-03-05T23:19:39.753Z,40.10
2023-03-05T23:22:10.074Z,36.37
2023-03-05T23:24:39.189Z,32.47
2023-03-05T23:27:09.285Z,32.20
2023-03-05T23:29:53.269Z,40.30
2023-03-05T23:32:23.228Z,32.57
2023-03-05T23:34:51.793Z,35.07
2023-03-05T23:37:20.330Z,32.70
2023-03-05T23:39:48.952Z,33.93
2023-03-05T23:42:17.473Z,34.77
2023-03-05T23:44:46.099Z,33.03
2023-03-05T23:47:14.746Z,31.57
2023-03-05T23:49:44.682Z,34.17
2023-03-05T23:52:13.431Z,34.57
2023-03-05T23:54:42.052Z,35.30
2023-03-05T23:57:10.539Z,39.42
2023-03-05T23:59:39.114Z,37.80
